This is the latest recevied weather packets stored in our database for station/object S57ZT-10. If no packets are shown the sender has not sent any weather packets the latest 10 day(s).
| Time | Temp. | Humidity | Pressure | Rain* | Wind** | Luminosity | Snow |
|---|---|---|---|---|---|---|---|
| 1777371319 | 25° C | 28% | 1021.1 hPa | - | - | - | - |
| 1777370536 | 24.44° C | 30% | 1021.1 hPa | - | - | - | - |
| 1777370476 | 24.44° C | 30% | 1021.1 hPa | - | - | - | - |
| 1777369562 | 23.33° C | 31% | 1021.3 hPa | - | - | - | - |
| 1777369507 | 23.33° C | 31% | 1021.3 hPa | - | - | - | - |
| 1777368607 | 22.78° C | 31% | 1021.5 hPa | - | - | - | - |
| 1777367776 | 22.78° C | 32% | 1021.5 hPa | - | - | - | - |
| 1777367716 | 22.78° C | 32% | 1021.5 hPa | - | - | - | - |
| 1777366807 | 22.78° C | 31% | 1021.6 hPa | - | - | - | - |
| 1777365962 | 22.22° C | 32% | 1021.4 hPa | - | - | - | - |
| 1777365916 | 22.22° C | 32% | 1021.4 hPa | - | - | - | - |
| 1777365006 | 22.22° C | 32% | 1021.4 hPa | - | - | - | - |
| 1777361490 | 22.22° C | 35% | 1021.6 hPa | - | - | - | - |
| 1777361421 | 22.22° C | 35% | 1021.6 hPa | - | - | - | - |
| 1777360506 | 21.67° C | 36% | 1021.8 hPa | - | - | - | - |
| 1777359605 | 21.67° C | 36% | 1021.8 hPa | - | - | - | - |
| 1777358704 | 21.11° C | 37% | 1021.6 hPa | - | - | - | - |
| 1777357803 | 20.56° C | 38% | 1021.5 hPa | - | - | - | - |
| 1777356906 | 19.44° C | 40% | 1021.8 hPa | - | - | - | - |
| 1777356002 | 17.22° C | 44% | 1021.8 hPa | - | - | - | - |
| 1777355101 | 15.56° C | 46% | 1021.7 hPa | - | - | - | - |
| 1777354203 | 15° C | 45% | 1021.8 hPa | - | - | - | - |
| 1777353361 | 14.44° C | 46% | 1021.6 hPa | - | - | - | - |
| 1777353320 | 14.44° C | 46% | 1021.6 hPa | - | - | - | - |
| 1777352405 | 14.44° C | 45% | 1021.6 hPa | - | - | - | - |
* Rain since midnight (hover to see other rain measurements)
** Current wind speed in m/s (hover to see current wind gust speed)